Jacksonville, IL (62650)

5:33 PM CDT on August 28, 2016 (GMT -0500)
Book Lane | | Change Station

Elev 663 ft 39.73 °N, 90.26 °W | Updated 12 seconds ago

Clear
Clear
84.4 °F
Feels Like 92 °F
N
0.0
Wind Variable Wind from NNW
Gusts 0.0 mph

Today
High -- | Low -- °F
--% Chance of Precip.
Yesterday
High -- | Low -- °F
Precip. -- in
Pressure 30.11 in
Visibility 10.0 miles
Clouds Clear
Heat Index 92 °F
Dew Point 74 °F
Humidity 72%
Rainfall 0.27 in
Snow Depth Not available.
6:25 AM 7:37 PM
Waning Crescent, 13% visible
METAR KIJX 282215Z AUTO 02003KT 10SM CLR 29/24 A3011 RMK AO2 LTG DSNT NE T02920241
Pressure 30.11 in
Visibility 10.0 miles
Clouds Clear
Heat Index 92 °F
Dew Point 74 °F
Humidity 72%
Rainfall 0.27 in
Snow Depth Not available.
6:25 AM 7:37 PM
Waning Crescent, 13% visible
METAR KIJX 282215Z AUTO 02003KT 10SM CLR 29/24 A3011 RMK AO2 LTG DSNT NE T02920241

10-Day Weather Forecast

Almanac

Astronomy

Aug. 28, 2016 Rise Set
Actual Time
Civil Twilight
Nautical Twilight
Astronomical Twilight
Moon
Length of Visible Light
Length of Day
Tomorrow will be .
, % of the Moon is Illuminated

Today's Extremes

State Highs State Lows

Community

WunderPhotos

Upload Photos

1,935,705 photos uploaded!

WunderBlog® & News

Nearby

Air Quality

  Air Quality AQ Index Pollutant
Not available.

Snow Depth

Station Depth Elevation

Earthquake Activity

City Distance Mag. Time & Date
Minimum magnitude displayed is 2.5.

Coastal Water Temperatures

Place Temperature

Stations

Nearby Weather Stations

Station Location Temp. Windchill Dew Point Humidity Wind Precip. Elev Updated Type
                   

Watches & Warnings

There are currently no watches in effect.